Terminal Aerodrome Forecast
Issued by NWS

Home | Current Version | Previous Version | Graphics & Text | Print | Product List | Glossary On
Versions: 1 2 3 4 5 6 7 8 9 10 11 12 13 14 15 16 17 18 19 20 21 22 23 24
000
FTUS43 KMPX 260400 AAA
TAFAXN
TAF AMD
KAXN 260401Z 2604/2624 09008KT P6SM OVC035
     FM260600 08009KT 4SM -SN OVC020
     FM260800 07010KT 2SM -SN BR OVC012
     FM261400 36014KT 6SM -SN OVC012
     FM261800 34014KT P6SM BKN012
     FM262200 34012KT P6SM FEW012=

USA.gov is the U.S. government's official web portal to all federal, state and local government web resources and services.